Flight Briefing for CPX305

Departure Arrival
Seattle-Tacoma International Airport (KSEA)
Click to view FAA NOTAMS
Chicago/Rockford International Airport (KRFD)
Click to view FAA NOTAMS
Departure Time Arrival Time
N/A N/A
Aircraft Distance
B767-300BDSF 1662nm
Departure METAR Arrival METAR
KSEA 250353Z 20007KT 10SM FEW035 OVC050 13/07 A2996 RMK AO2 SLP152 T01330072 KRFD 250354Z 18009KT 10SM FEW065 SCT090 BKN250 22/21 A2987 RMK AO2 LTG DSNT NW SLP114 CONS LTGICCC DSNT SW AND NW CB DSNT SW AND NW MOV NE T02220206
Suggested Route
NORMY J12 EPH HLN DPR J16 FSD DBQ


View recent IFR Routes data
Notes



Charts and Procedures

Charts for KSEA
No chart available
Charts for KRFD
No chart available

Windy.com Weather Map